createdAt,value
2018-10-01T00:00:10.503Z,0
2018-10-01T00:01:19.847Z,0
2018-10-01T00:02:29.730Z,0
2018-10-01T00:03:39.955Z,0
2018-10-01T00:04:50.084Z,0
2018-10-01T00:06:00.009Z,0
2018-10-01T00:07:09.638Z,0
2018-10-01T00:08:19.773Z,0
2018-10-01T00:09:29.970Z,0
2018-10-01T00:10:40.145Z,0
2018-10-01T00:11:50.268Z,0
2018-10-01T00:13:00.416Z,0
2018-10-01T00:14:10.291Z,0
2018-10-01T00:15:20.742Z,0
2018-10-01T00:16:30.884Z,0
2018-10-01T00:17:41.028Z,0
2018-10-01T00:18:51.219Z,0
2018-10-01T00:20:01.353Z,0
2018-10-01T00:21:11.494Z,0
2018-10-01T00:22:21.618Z,0
2018-10-01T00:23:31.472Z,0
2018-10-01T00:24:41.443Z,0
2018-10-01T00:25:51.348Z,0
2018-10-01T00:27:01.602Z,0
2018-10-01T00:28:11.479Z,0
2018-10-01T00:29:21.611Z,0
2018-10-01T00:30:31.741Z,0
2018-10-01T00:31:41.861Z,0
2018-10-01T00:32:51.745Z,0
2018-10-01T00:34:01.876Z,0
2018-10-01T00:35:12.018Z,0
2018-10-01T00:36:22.130Z,0
2018-10-01T00:37:31.692Z,0
2018-10-01T00:38:41.930Z,0
2018-10-01T00:39:51.836Z,0
2018-10-01T00:41:02.029Z,0
2018-10-01T00:42:12.174Z,0
2018-10-01T00:43:21.731Z,0
2018-10-01T00:44:32.096Z,0
2018-10-01T00:45:41.980Z,0
2018-10-01T00:46:51.863Z,0
2018-10-01T00:48:01.995Z,0
2018-10-01T00:49:12.138Z,0
2018-10-01T00:50:22.394Z,0
2018-10-01T00:51:32.539Z,0
2018-10-01T00:52:42.669Z,0
2018-10-01T00:53:52.799Z,0
2018-10-01T00:55:02.952Z,0
2018-10-01T00:56:13.128Z,0
2018-10-01T00:57:23.010Z,0
2018-10-01T00:58:32.893Z,0
2018-10-01T00:59:43.035Z,0
2018-10-01T01:00:52.641Z,0
2018-10-01T01:02:02.827Z,0
2018-10-01T01:03:12.971Z,0
2018-10-01T01:04:23.114Z,0
2018-10-01T01:05:32.986Z,0
2018-10-01T01:06:42.401Z,0
2018-10-01T01:07:52.657Z,0
2018-10-01T01:09:05.834Z,0
2018-10-01T01:10:15.975Z,0
2018-10-01T01:11:26.117Z,0
2018-10-01T01:12:36.253Z,0
2018-10-01T01:13:46.440Z,0
2018-10-01T01:14:56.273Z,0
2018-10-01T01:16:06.844Z,0
2018-10-01T01:17:16.980Z,0
2018-10-01T01:18:27.112Z,0
2018-10-01T01:19:37.301Z,0
2018-10-01T01:20:47.430Z,0
2018-10-01T01:21:57.314Z,0
2018-10-01T01:23:08.645Z,0
2018-10-01T01:24:18.831Z,0
2018-10-01T01:25:28.693Z,0
2018-10-01T01:26:38.840Z,0
2018-10-01T01:27:48.976Z,0
2018-10-01T01:28:58.917Z,0
2018-10-01T01:30:10.978Z,0
2018-10-01T01:31:21.167Z,0
2018-10-01T01:32:31.301Z,0
2018-10-01T01:33:41.449Z,0
2018-10-01T01:34:51.592Z,0
2018-10-01T01:36:01.737Z,0
2018-10-01T01:37:11.890Z,0
2018-10-01T01:38:21.771Z,0
2018-10-01T01:39:31.693Z,0
2018-10-01T01:40:41.817Z,0
2018-10-01T01:41:51.944Z,0
2018-10-01T01:43:02.124Z,0
2018-10-01T01:44:11.997Z,0
2018-10-01T01:45:21.900Z,0
2018-10-01T01:46:31.783Z,0
2018-10-01T01:47:41.920Z,0
2018-10-01T01:48:52.207Z,0
2018-10-01T01:50:02.334Z,0
2018-10-01T01:51:11.686Z,0
2018-10-01T01:52:21.817Z,0
2018-10-01T01:53:31.947Z,0
2018-10-01T01:54:42.350Z,0
2018-10-01T01:55:52.704Z,0
2018-10-01T01:57:04.648Z,0
2018-10-01T01:58:14.778Z,0
2018-10-01T01:59:24.919Z,0
2018-10-01T02:00:35.053Z,0
2018-10-01T02:01:44.932Z,0
2018-10-01T02:02:54.802Z,0
2018-10-01T02:04:04.597Z,0
2018-10-01T02:05:14.474Z,0
2018-10-01T02:06:24.769Z,0
2018-10-01T02:07:34.637Z,0
2018-10-01T02:08:44.767Z,0
2018-10-01T02:09:54.638Z,0
2018-10-01T02:11:04.785Z,0
2018-10-01T02:12:14.645Z,0
2018-10-01T02:13:24.792Z,0
2018-10-01T02:14:34.644Z,0
2018-10-01T02:15:44.771Z,0
2018-10-01T02:16:54.919Z,0
2018-10-01T02:18:05.207Z,0
2018-10-01T02:19:15.346Z,0
2018-10-01T02:20:25.488Z,0
2018-10-01T02:21:35.092Z,0
2018-10-01T02:22:45.216Z,0
2018-10-01T02:23:55.158Z,0
2018-10-01T02:25:05.297Z,0
2018-10-01T02:26:15.483Z,0
2018-10-01T02:27:25.610Z,0
2018-10-01T02:28:35.487Z,0
2018-10-01T02:29:45.637Z,0
2018-10-01T02:30:55.769Z,0
2018-10-01T02:32:05.922Z,0
2018-10-01T02:33:16.115Z,0
2018-10-01T02:34:26.251Z,0
2018-10-01T02:35:36.189Z,0
2018-10-01T02:36:46.327Z,0
2018-10-01T02:37:56.477Z,0
2018-10-01T02:39:06.069Z,0
2018-10-01T02:40:16.224Z,0
2018-10-01T02:41:26.365Z,0
2018-10-01T02:42:36.497Z,0
2018-10-01T02:43:46.654Z,0
2018-10-01T02:44:56.799Z,0
2018-10-01T02:46:08.224Z,0
2018-10-01T02:47:18.106Z,0
2018-10-01T02:48:28.251Z,0
2018-10-01T02:49:38.126Z,0
2018-10-01T02:50:48.018Z,0
2018-10-01T02:51:58.162Z,0
2018-10-01T02:53:08.721Z,0
2018-10-01T02:54:18.870Z,0
2018-10-01T02:55:29.254Z,0
2018-10-01T02:56:39.599Z,0
2018-10-01T02:57:49.716Z,0
2018-10-01T02:58:59.931Z,0
2018-10-01T03:00:10.823Z,0
2018-10-01T03:01:20.709Z,0
2018-10-01T03:02:30.617Z,0
2018-10-01T03:34:13.822Z,0
2018-10-01T03:35:23.955Z,0
2018-10-01T03:36:34.258Z,0
2018-10-01T03:37:44.299Z,0
2018-10-01T03:38:54.099Z,0
2018-10-01T03:40:04.050Z,0
2018-10-01T03:41:14.260Z,0
2018-10-01T03:42:24.320Z,0
2018-10-01T03:43:34.136Z,0
2018-10-01T03:44:44.216Z,0
2018-10-01T03:45:54.174Z,0
2018-10-01T03:47:05.177Z,0
2018-10-01T03:48:14.992Z,0
2018-10-01T03:49:24.552Z,0
2018-10-01T03:50:34.617Z,0
2018-10-01T03:51:44.429Z,0
2018-10-01T03:52:54.485Z,0
2018-10-01T03:54:04.549Z,0
2018-10-01T03:55:14.363Z,0
2018-10-01T03:56:24.166Z,0
2018-10-01T03:57:34.280Z,0
2018-10-01T03:58:44.439Z,0
2018-10-01T03:59:54.529Z,0
2018-10-01T04:01:04.685Z,0
2018-10-01T04:02:14.490Z,0
2018-10-01T04:03:24.175Z,0
2018-10-01T04:04:34.339Z,0
2018-10-01T04:05:44.408Z,0
2018-10-01T04:06:54.490Z,0
2018-10-01T04:08:05.509Z,0
2018-10-01T04:09:15.702Z,0
2018-10-01T04:10:25.790Z,0
2018-10-01T04:11:35.585Z,0
2018-10-01T04:12:45.162Z,0
2018-10-01T04:13:55.234Z,0
2018-10-01T04:15:05.199Z,0
2018-10-01T04:16:15.378Z,0
2018-10-01T04:17:25.717Z,0
2018-10-01T04:18:35.515Z,0
2018-10-01T04:19:45.605Z,0
2018-10-01T04:20:55.732Z,0
2018-10-01T04:22:05.829Z,0
2018-10-01T04:23:15.627Z,4
2018-10-01T04:24:25.782Z,0
2018-10-01T04:25:35.593Z,0
2018-10-01T04:26:45.917Z,4
2018-10-01T04:27:55.987Z,4
2018-10-01T04:29:06.063Z,4
2018-10-01T04:30:16.181Z,4
2018-10-01T04:31:26.244Z,8
2018-10-01T04:32:36.365Z,8
2018-10-01T04:33:46.191Z,8
2018-10-01T04:34:56.273Z,12
2018-10-01T04:36:08.091Z,12
2018-10-01T04:37:18.196Z,16
2018-10-01T04:38:28.328Z,16
2018-10-01T04:39:38.405Z,24
2018-10-01T04:40:48.445Z,28
2018-10-01T04:41:58.677Z,32
2018-10-01T04:43:08.746Z,36
2018-10-01T04:44:18.867Z,44
2018-10-01T04:45:28.778Z,52
2018-10-01T04:46:38.997Z,60
2018-10-01T04:47:49.125Z,68
2018-10-01T04:48:58.942Z,80
2018-10-01T04:50:09.016Z,92
2018-10-01T04:51:18.839Z,104
2018-10-01T04:52:28.919Z,120
2018-10-01T04:53:38.733Z,132
2018-10-01T04:54:48.305Z,144
2018-10-01T04:55:58.359Z,164
2018-10-01T04:57:08.489Z,180
2018-10-01T04:58:18.859Z,196
2018-10-01T04:59:29.131Z,216
2018-10-01T05:00:39.212Z,232
2018-10-01T05:01:49.327Z,252
2018-10-01T05:02:58.879Z,276
2018-10-01T05:04:08.947Z,296
2018-10-01T05:05:19.011Z,320
2018-10-01T05:06:29.080Z,344
2018-10-01T05:07:39.153Z,368
2018-10-01T05:08:48.961Z,396
2018-10-01T05:09:59.043Z,428
2018-10-01T05:11:11.113Z,456
2018-10-01T05:12:21.190Z,484
2018-10-01T05:13:31.309Z,516
2018-10-01T05:14:41.485Z,544
2018-10-01T05:15:51.678Z,576
2018-10-01T05:17:01.770Z,608
2018-10-01T05:18:11.838Z,644
2018-10-01T05:19:21.439Z,680
2018-10-01T05:20:31.254Z,716
2018-10-01T05:21:41.429Z,748
2018-10-01T05:22:51.513Z,784
2018-10-01T05:24:01.582Z,820
2018-10-01T05:25:11.903Z,852
2018-10-01T05:26:22.004Z,888
2018-10-01T05:27:31.853Z,928
2018-10-01T05:28:41.917Z,960
2018-10-01T05:29:51.719Z,992
2018-10-01T05:31:01.766Z,1016
2018-10-01T05:32:11.833Z,1060
2018-10-01T05:33:21.924Z,1096
2018-10-01T05:34:31.737Z,1128
2018-10-01T05:35:41.811Z,1172
2018-10-01T05:36:51.882Z,1208
2018-10-01T05:38:02.966Z,1248
2018-10-01T05:39:13.079Z,1288
2018-10-01T05:40:22.883Z,1316
2018-10-01T05:41:32.915Z,1356
2018-10-01T05:42:42.994Z,1400
2018-10-01T05:43:53.074Z,1436
2018-10-01T05:45:03.739Z,1472
2018-10-01T05:46:13.534Z,1504
2018-10-01T05:47:23.619Z,1536
2018-10-01T05:48:33.705Z,1572
2018-10-01T05:49:43.817Z,1604
2018-10-01T05:50:53.878Z,1660
2018-10-01T05:52:03.965Z,1736
2018-10-01T05:53:14.049Z,1800
2018-10-01T05:54:24.123Z,1856
2018-10-01T05:55:34.212Z,1872
2018-10-01T05:56:44.333Z,1864
2018-10-01T05:57:54.747Z,1868
2018-10-01T05:59:04.903Z,1880
2018-10-01T06:00:15.089Z,1884
2018-10-01T06:01:25.166Z,1896
2018-10-01T06:02:34.981Z,1896
2018-10-01T06:03:45.051Z,1908
2018-10-01T06:04:55.689Z,1896
2018-10-01T06:06:05.523Z,1908
2018-10-01T06:07:15.348Z,1912
2018-10-01T06:08:25.291Z,1876
2018-10-01T06:09:35.127Z,1936
2018-10-01T06:10:45.241Z,1944
2018-10-01T06:11:55.592Z,1968
2018-10-01T06:13:05.893Z,2032
2018-10-01T06:14:15.714Z,2052
2018-10-01T06:15:25.853Z,2084
2018-10-01T06:16:35.652Z,2132
2018-10-01T06:17:45.752Z,2120
2018-10-01T06:18:55.816Z,2060
2018-10-01T06:20:05.610Z,2072
2018-10-01T06:21:15.722Z,2096
2018-10-01T06:22:25.783Z,2120
2018-10-01T06:23:35.606Z,2136
2018-10-01T06:24:45.172Z,2164
2018-10-01T06:25:55.233Z,2152
2018-10-01T06:27:06.270Z,2088
2018-10-01T06:28:16.079Z,2132
2018-10-01T06:29:25.897Z,2044
2018-10-01T06:30:36.046Z,2100
2018-10-01T06:31:46.129Z,2060
2018-10-01T06:32:56.312Z,2060
2018-10-01T06:34:07.048Z,2088
2018-10-01T06:35:16.871Z,2056
2018-10-01T06:36:26.827Z,2072
2018-10-01T06:37:36.418Z,2100
2018-10-01T06:38:45.707Z,2140
2018-10-01T06:39:55.533Z,2204
2018-10-01T06:41:05.925Z,2256
2018-10-01T06:42:16.145Z,2256
2018-10-01T06:43:26.058Z,2464
2018-10-01T06:44:35.885Z,2500
2018-10-01T06:45:45.978Z,2556
2018-10-01T06:46:55.595Z,2508
2018-10-01T06:48:05.815Z,2592
2018-10-01T06:49:15.865Z,2364
2018-10-01T06:50:25.665Z,2420
2018-10-01T06:51:35.471Z,2548
2018-10-01T06:52:45.567Z,2648
2018-10-01T06:53:54.914Z,2804
2018-10-01T06:55:04.724Z,2668
2018-10-01T06:56:14.564Z,2796
2018-10-01T06:57:24.375Z,2620
2018-10-01T06:58:34.193Z,2992
2018-10-01T06:59:44.424Z,3160
2018-10-01T07:00:54.499Z,3228
2018-10-01T07:02:04.595Z,3176
2018-10-01T07:03:14.671Z,2972
2018-10-01T07:04:24.752Z,2992
2018-10-01T07:05:34.804Z,3012
2018-10-01T07:06:45.199Z,3020
2018-10-01T07:07:55.529Z,3004
2018-10-01T07:09:09.453Z,2980
2018-10-01T07:10:19.749Z,2952
2018-10-01T07:11:29.993Z,2928
2018-10-01T07:12:39.924Z,2964
2018-10-01T07:13:49.740Z,3088
2018-10-01T07:14:59.821Z,3304
2018-10-01T07:16:09.650Z,3692
2018-10-01T07:17:20.554Z,3616
2018-10-01T07:18:31.254Z,3540
2018-10-01T07:19:41.353Z,3392
2018-10-01T07:20:51.443Z,3280
2018-10-01T07:22:01.865Z,3228
2018-10-01T07:23:12.165Z,3252
2018-10-01T07:24:22.821Z,3332
2018-10-01T07:25:32.957Z,3432
2018-10-01T07:26:42.803Z,3508
2018-10-01T07:27:52.882Z,3540
2018-10-01T07:29:02.954Z,3512
2018-10-01T07:30:13.036Z,3420
2018-10-01T07:31:23.105Z,3312
2018-10-01T07:32:33.194Z,3220
2018-10-01T07:33:43.330Z,3168
2018-10-01T07:34:53.427Z,3140
2018-10-01T07:36:03.549Z,3132
2018-10-01T07:37:13.372Z,3144
2018-10-01T07:38:23.463Z,3172
2018-10-01T07:39:33.275Z,3224
2018-10-01T07:40:43.362Z,3276
2018-10-01T07:41:53.488Z,3324
2018-10-01T07:43:03.585Z,3336
2018-10-01T07:44:13.400Z,3304
2018-10-01T07:45:24.415Z,3252
2018-10-01T07:46:34.685Z,3192
2018-10-01T07:47:44.513Z,3144
2018-10-01T07:48:54.426Z,3112
2018-10-01T07:50:04.519Z,3108
2018-10-01T07:51:15.409Z,3120
2018-10-01T07:52:25.613Z,3148
2018-10-01T07:53:36.131Z,3164
2018-10-01T07:54:46.403Z,3156
2018-10-01T07:55:56.546Z,3168
2018-10-01T07:57:06.914Z,3216
2018-10-01T07:58:17.079Z,3272
2018-10-01T07:59:27.310Z,3296
2018-10-01T08:00:37.710Z,3240
2018-10-01T08:01:47.551Z,3124
2018-10-01T08:02:57.628Z,2984
2018-10-01T08:04:07.708Z,2884
2018-10-01T08:05:17.621Z,2828
2018-10-01T08:06:27.817Z,2824
2018-10-01T08:07:37.920Z,2856
2018-10-01T08:08:48.385Z,2912
2018-10-01T08:09:58.234Z,2944
2018-10-01T08:11:08.388Z,2944
2018-10-01T08:12:18.212Z,2944
2018-10-01T08:13:28.274Z,2928
2018-10-01T08:14:38.839Z,2880
2018-10-01T08:15:49.288Z,2832
2018-10-01T08:16:59.457Z,2804
2018-10-01T08:18:09.295Z,2792
2018-10-01T08:19:19.383Z,2780
2018-10-01T08:20:29.302Z,2772
2018-10-01T08:21:39.516Z,2784
2018-10-01T08:22:49.653Z,2788
2018-10-01T08:23:59.726Z,2796
2018-10-01T08:25:09.869Z,2800
2018-10-01T08:26:20.299Z,2812
2018-10-01T08:27:30.156Z,2832
2018-10-01T08:28:39.737Z,2820
2018-10-01T08:29:50.900Z,2820
2018-10-01T08:31:02.346Z,2852
2018-10-01T08:32:12.753Z,2920
2018-10-01T08:33:23.009Z,3028
2018-10-01T08:34:33.183Z,3136
2018-10-01T08:35:43.434Z,3188
2018-10-01T08:36:53.253Z,3148
2018-10-01T08:38:06.224Z,3044
2018-10-01T08:39:16.605Z,2956
2018-10-01T08:40:26.701Z,2912
2018-10-01T08:41:37.030Z,2928
2018-10-01T08:42:47.226Z,3028
2018-10-01T08:43:57.103Z,3368
2018-10-01T08:45:07.281Z,4064
2018-10-01T08:46:17.381Z,5012
2018-10-01T08:47:28.121Z,5072
2018-10-01T08:48:38.296Z,5148
2018-10-01T08:49:47.849Z,4996
2018-10-01T08:50:58.026Z,4844
2018-10-01T08:52:08.239Z,4784
2018-10-01T08:53:19.502Z,4552
2018-10-01T08:54:29.368Z,4128
2018-10-01T08:55:39.698Z,4012
2018-10-01T08:56:49.310Z,4068
2018-10-01T08:57:58.861Z,4284
2018-10-01T08:59:11.012Z,4380
2018-10-01T09:00:21.349Z,4208
2018-10-01T09:01:31.437Z,4196
2018-10-01T09:02:41.200Z,4272
2018-10-01T09:03:51.279Z,4448
2018-10-01T09:05:01.147Z,4384
2018-10-01T09:06:11.351Z,4380
2018-10-01T09:07:21.193Z,4480
2018-10-01T09:08:31.691Z,4640
2018-10-01T09:09:41.910Z,4740
2018-10-01T09:10:51.983Z,4868
2018-10-01T09:12:02.123Z,4980
2018-10-01T09:13:12.213Z,5064
2018-10-01T09:14:22.657Z,5200
2018-10-01T09:15:32.326Z,5408
2018-10-01T09:16:42.408Z,5072
2018-10-01T09:17:51.974Z,5168
2018-10-01T09:19:01.778Z,5156
2018-10-01T09:20:12.281Z,5544
2018-10-01T09:21:22.720Z,5384
2018-10-01T09:22:32.454Z,5664
2018-10-01T09:23:42.778Z,5244
2018-10-01T09:24:52.594Z,5020
2018-10-01T09:26:02.542Z,5620
2018-10-01T09:27:12.746Z,5320
2018-10-01T09:28:22.831Z,5132
2018-10-01T09:29:33.023Z,5084
2018-10-01T09:30:43.372Z,5320
2018-10-01T09:31:53.445Z,4644
2018-10-01T09:33:03.574Z,4540
2018-10-01T09:34:13.760Z,4692
2018-10-01T09:35:24.112Z,4640
2018-10-01T09:36:34.356Z,4608
2018-10-01T09:37:44.435Z,4552
2018-10-01T09:38:54.256Z,4396
2018-10-01T09:40:04.545Z,4308
2018-10-01T09:41:14.825Z,4340
2018-10-01T09:42:24.910Z,4496
2018-10-01T09:43:35.078Z,4512
2018-10-01T09:44:45.357Z,4408
2018-10-01T09:45:55.439Z,4372
2018-10-01T09:47:05.597Z,4480
2018-10-01T09:48:15.850Z,4480
2018-10-01T09:49:25.449Z,4572
2018-10-01T09:50:35.820Z,4440
2018-10-01T09:51:46.052Z,4396
2018-10-01T09:52:56.153Z,4256
2018-10-01T09:54:06.263Z,4176
2018-10-01T09:55:16.406Z,4392
2018-10-01T09:56:26.677Z,4292
2018-10-01T09:57:36.565Z,4448
2018-10-01T09:58:46.576Z,4888
2018-10-01T09:59:56.642Z,4808
2018-10-01T10:01:06.463Z,4392
2018-10-01T10:02:17.158Z,4268
2018-10-01T10:03:26.896Z,4836
2018-10-01T10:04:37.562Z,6156
2018-10-01T10:05:47.809Z,6208
2018-10-01T10:06:57.945Z,6260
2018-10-01T10:08:10.851Z,6244
2018-10-01T10:09:21.132Z,6140
2018-10-01T10:10:31.236Z,6108
2018-10-01T10:11:40.973Z,6128
2018-10-01T10:12:50.847Z,6248
2018-10-01T10:14:00.820Z,6344
2018-10-01T10:15:10.984Z,6420
2018-10-01T10:16:21.561Z,6520
2018-10-01T10:17:32.358Z,6632
2018-10-01T10:18:42.243Z,6668
2018-10-01T10:19:52.063Z,6684
2018-10-01T10:21:01.670Z,6716
2018-10-01T10:22:12.479Z,6720
2018-10-01T10:23:22.728Z,5972
2018-10-01T10:24:32.802Z,4484
2018-10-01T10:25:42.645Z,4728
2018-10-01T10:26:52.728Z,4004
2018-10-01T10:28:02.408Z,4912
2018-10-01T10:29:12.004Z,4644
2018-10-01T10:30:22.086Z,5248
2018-10-01T10:31:32.157Z,5008
2018-10-01T10:32:42.587Z,6592
2018-10-01T10:33:52.427Z,6696
2018-10-01T10:35:02.255Z,6700
2018-10-01T10:36:12.343Z,6388
2018-10-01T10:37:22.426Z,3960
2018-10-01T10:38:32.790Z,5156
2018-10-01T10:39:43.261Z,5460
2018-10-01T10:40:53.373Z,3532
2018-10-01T10:42:03.354Z,3500
2018-10-01T10:43:13.183Z,5912
2018-10-01T10:44:23.803Z,5520
2018-10-01T10:45:34.150Z,6288
2018-10-01T10:46:44.250Z,6204
2018-10-01T10:47:54.356Z,6156
2018-10-01T10:49:04.459Z,6096
2018-10-01T10:50:14.881Z,6068
2018-10-01T10:51:25.033Z,6044
2018-10-01T10:52:35.120Z,6008
2018-10-01T10:53:45.320Z,6016
2018-10-01T10:54:55.415Z,6028
2018-10-01T10:56:05.328Z,6000
2018-10-01T10:57:15.044Z,5984
2018-10-01T10:58:25.121Z,4812
2018-10-01T10:59:35.216Z,5316
2018-10-01T11:00:45.037Z,4944
2018-10-01T11:01:55.130Z,4172
2018-10-01T11:03:05.316Z,5984
2018-10-01T11:04:15.391Z,5924
2018-10-01T11:05:25.248Z,5904
2018-10-01T11:06:35.325Z,5880
2018-10-01T11:07:45.174Z,5848
2018-10-01T11:08:55.265Z,5836
2018-10-01T11:10:05.355Z,5784
2018-10-01T11:11:15.542Z,5764
2018-10-01T11:12:25.090Z,5804
2018-10-01T11:13:35.183Z,5876
2018-10-01T11:14:46.238Z,5892
2018-10-01T11:15:56.668Z,5892
2018-10-01T11:17:06.838Z,5896
2018-10-01T11:18:17.169Z,5904
2018-10-01T11:19:28.224Z,5908
2018-10-01T11:20:38.004Z,5928
2018-10-01T11:21:49.096Z,5912
2018-10-01T11:22:59.458Z,5884
2018-10-01T11:24:09.287Z,5852
2018-10-01T11:25:19.285Z,5852
2018-10-01T11:26:29.325Z,5856
2018-10-01T11:27:39.417Z,5708
2018-10-01T11:28:49.236Z,5724
2018-10-01T11:29:59.458Z,5704
2018-10-01T11:31:11.003Z,5968
2018-10-01T11:32:21.339Z,5924
2018-10-01T11:33:31.611Z,5956
2018-10-01T11:34:41.993Z,5768
2018-10-01T11:35:52.162Z,5896
2018-10-01T11:37:02.244Z,6056
2018-10-01T11:38:12.393Z,6012
2018-10-01T11:39:23.061Z,6020
2018-10-01T11:40:33.192Z,5996
2018-10-01T11:41:42.751Z,5944
2018-10-01T11:42:52.818Z,5936
2018-10-01T11:44:03.767Z,6008
2018-10-01T11:45:14.252Z,6076
2018-10-01T11:46:24.407Z,6084
2018-10-01T11:47:34.235Z,5936
2018-10-01T11:48:44.328Z,5916
2018-10-01T11:49:54.458Z,6020
2018-10-01T11:51:04.816Z,6036
2018-10-01T11:52:14.990Z,6068
2018-10-01T11:53:24.790Z,6100
2018-10-01T11:54:34.825Z,6140
2018-10-01T11:55:44.413Z,6164
2018-10-01T11:56:54.673Z,6156
2018-10-01T11:58:04.781Z,6204
2018-10-01T11:59:14.871Z,6024
2018-10-01T12:00:24.962Z,6172
2018-10-01T12:01:35.052Z,6156
2018-10-01T12:02:44.875Z,6192
2018-10-01T12:03:55.488Z,6188
2018-10-01T12:05:06.372Z,6248
2018-10-01T12:06:16.453Z,6224
2018-10-01T12:07:26.530Z,6260
2018-10-01T12:08:36.620Z,6272
2018-10-01T12:09:47.756Z,6260
2018-10-01T12:10:57.964Z,6300
2018-10-01T12:12:08.523Z,6244
2018-10-01T12:13:18.098Z,6252
2018-10-01T12:14:28.176Z,6296
2018-10-01T12:15:38.647Z,6240
2018-10-01T12:16:49.065Z,6224
2018-10-01T12:17:58.907Z,6204
2018-10-01T12:19:09.026Z,6272
2018-10-01T12:20:18.918Z,6396
2018-10-01T12:21:28.647Z,6408
2018-10-01T12:22:38.500Z,6372
2018-10-01T12:23:48.591Z,6392
2018-10-01T12:24:58.674Z,6248
2018-10-01T12:26:08.232Z,6280
2018-10-01T12:27:18.889Z,6280
2018-10-01T12:28:29.047Z,6244
2018-10-01T12:29:39.147Z,6136
2018-10-01T12:30:49.005Z,6352
2018-10-01T12:31:59.331Z,5796
2018-10-01T12:33:10.052Z,6340
2018-10-01T12:34:20.112Z,5732
2018-10-01T12:35:30.225Z,4276
2018-10-01T12:36:40.336Z,3876
2018-10-01T12:37:50.416Z,3076
2018-10-01T12:39:03.156Z,2924
2018-10-01T12:40:13.256Z,3116
2018-10-01T12:41:23.059Z,2968
2018-10-01T12:42:33.141Z,3124
2018-10-01T12:43:43.253Z,4140
2018-10-01T12:44:53.103Z,6264
2018-10-01T12:46:05.963Z,3508
2018-10-01T12:47:16.041Z,3548
2018-10-01T12:48:25.858Z,3444
2018-10-01T12:49:35.962Z,3348
2018-10-01T12:50:46.195Z,4028
2018-10-01T12:51:56.450Z,3392
2018-10-01T12:53:07.234Z,3672
2018-10-01T12:54:17.325Z,3620
2018-10-01T12:55:27.388Z,3488
2018-10-01T12:56:37.253Z,3400
2018-10-01T12:57:47.165Z,3356
2018-10-01T12:58:57.403Z,3340
2018-10-01T13:00:10.678Z,3344
2018-10-01T13:01:21.015Z,3352
2018-10-01T13:02:31.128Z,3388
2018-10-01T13:03:41.231Z,3448
2018-10-01T13:04:51.330Z,3464
2018-10-01T13:06:01.539Z,3476
2018-10-01T13:07:11.704Z,3468
2018-10-01T13:08:22.091Z,3488
2018-10-01T13:09:31.941Z,3540
2018-10-01T13:10:42.047Z,3516
2018-10-01T13:11:52.152Z,3616
2018-10-01T13:13:02.053Z,3780
2018-10-01T13:14:11.632Z,4376
2018-10-01T13:15:21.750Z,4264
2018-10-01T13:16:31.869Z,4472
2018-10-01T13:17:42.362Z,4708
2018-10-01T13:18:53.582Z,4704
2018-10-01T13:20:03.433Z,4676
2018-10-01T13:21:13.542Z,4636
2018-10-01T13:22:23.645Z,5280
2018-10-01T13:23:33.512Z,4236
2018-10-01T13:24:43.614Z,4048
2018-10-01T13:25:53.786Z,3916
2018-10-01T13:27:05.094Z,3756
2018-10-01T13:28:15.215Z,3616
2018-10-01T13:29:25.449Z,3480
2018-10-01T13:30:35.849Z,3376
2018-10-01T13:31:46.165Z,3292
2018-10-01T13:32:56.434Z,3200
2018-10-01T13:34:06.534Z,3108
2018-10-01T13:35:18.058Z,3064
2018-10-01T13:36:28.600Z,3044
2018-10-01T13:37:38.544Z,3056
2018-10-01T13:38:48.447Z,3044
2018-10-01T13:39:58.554Z,2984
2018-10-01T13:41:10.102Z,2872
2018-10-01T13:42:20.350Z,2720
2018-10-01T13:43:30.694Z,2568
2018-10-01T13:44:41.429Z,2420
2018-10-01T13:45:51.569Z,2288
2018-10-01T13:47:01.704Z,2160
2018-10-01T13:48:12.088Z,2048
2018-10-01T13:49:22.489Z,1952
2018-10-01T13:50:32.758Z,1888
2018-10-01T13:51:43.470Z,1840
2018-10-01T13:52:53.871Z,1784
2018-10-01T13:54:04.103Z,1732
2018-10-01T13:55:14.133Z,1656
2018-10-01T13:56:24.227Z,1584
2018-10-01T13:57:34.340Z,1512
2018-10-01T13:58:44.555Z,1448
2018-10-01T13:59:54.689Z,1392
2018-10-01T14:01:04.584Z,1332
2018-10-01T14:02:15.098Z,1264
2018-10-01T14:03:25.130Z,1196
2018-10-01T14:04:35.222Z,1124
2018-10-01T14:05:45.615Z,1068
2018-10-01T14:06:55.696Z,1016
2018-10-01T14:08:05.206Z,956
2018-10-01T14:09:16.077Z,892
2018-10-01T14:10:26.212Z,832
2018-10-01T14:11:36.313Z,784
2018-10-01T14:12:46.197Z,752
2018-10-01T14:13:56.992Z,728
2018-10-01T14:15:07.602Z,704
2018-10-01T14:16:17.719Z,688
2018-10-01T14:17:27.826Z,680
2018-10-01T14:18:37.945Z,668
2018-10-01T14:19:48.489Z,656
2018-10-01T14:20:58.838Z,644
2018-10-01T14:22:08.672Z,644
2018-10-01T14:23:18.806Z,656
2018-10-01T14:24:28.917Z,664
2018-10-01T14:25:40.292Z,664
2018-10-01T14:26:50.685Z,660
2018-10-01T14:28:00.834Z,644
2018-10-01T14:29:10.900Z,612
2018-10-01T14:30:21.200Z,584
2018-10-01T14:31:31.445Z,552
2018-10-01T14:32:41.645Z,528
2018-10-01T14:33:51.749Z,516
2018-10-01T14:35:01.596Z,508
2018-10-01T14:36:11.770Z,504
2018-10-01T14:37:22.041Z,508
2018-10-01T14:38:31.854Z,524
2018-10-01T14:39:42.033Z,552
2018-10-01T14:40:52.110Z,580
2018-10-01T14:42:02.325Z,604
2018-10-01T14:43:12.895Z,620
2018-10-01T14:44:22.705Z,636
2018-10-01T14:45:32.839Z,652
2018-10-01T14:46:42.955Z,672
2018-10-01T14:47:53.032Z,688
2018-10-01T14:49:05.831Z,688
2018-10-01T14:50:16.005Z,668
2018-10-01T14:51:26.415Z,640
2018-10-01T14:52:36.496Z,600
2018-10-01T14:53:46.630Z,576
2018-10-01T14:54:56.470Z,556
2018-10-01T14:56:06.574Z,536
2018-10-01T14:57:16.703Z,520
2018-10-01T14:58:26.841Z,504
2018-10-01T14:59:36.461Z,492
2018-10-01T15:00:46.886Z,484
2018-10-01T15:01:57.077Z,484
2018-10-01T15:03:06.888Z,484
2018-10-01T15:04:16.701Z,480
2018-10-01T15:05:26.845Z,480
2018-10-01T15:06:37.128Z,480
2018-10-01T15:07:47.472Z,476
2018-10-01T15:08:57.561Z,464
2018-10-01T15:10:10.648Z,460
2018-10-01T15:11:20.789Z,468
2018-10-01T15:12:31.069Z,460
2018-10-01T15:13:40.932Z,436
2018-10-01T15:14:50.777Z,412
2018-10-01T15:16:00.606Z,392
2018-10-01T15:17:10.769Z,368
2018-10-01T15:18:21.511Z,340
2018-10-01T15:19:31.727Z,320
2018-10-01T15:20:41.833Z,300
2018-10-01T15:21:51.479Z,292
2018-10-01T15:23:01.383Z,296
2018-10-01T15:24:11.818Z,304
2018-10-01T15:25:22.120Z,304
2018-10-01T15:26:32.221Z,292
2018-10-01T15:27:42.288Z,280
2018-10-01T15:28:52.178Z,272
2018-10-01T15:30:02.488Z,268
2018-10-01T15:31:12.631Z,264
2018-10-01T15:32:22.716Z,252
2018-10-01T15:33:32.918Z,232
2018-10-01T15:34:42.262Z,204
2018-10-01T15:35:52.375Z,176
2018-10-01T15:37:02.517Z,160
2018-10-01T15:38:12.688Z,144
2018-10-01T15:39:22.762Z,136
2018-10-01T15:40:32.990Z,132
2018-10-01T15:41:42.825Z,136
2018-10-01T15:42:52.935Z,136
2018-10-01T15:44:03.829Z,140
2018-10-01T15:45:13.933Z,144
2018-10-01T15:46:23.842Z,144
2018-10-01T15:47:33.995Z,140
2018-10-01T15:48:44.125Z,132
2018-10-01T15:49:54.470Z,120
2018-10-01T15:51:04.690Z,112
2018-10-01T15:52:14.878Z,104
2018-10-01T15:53:25.006Z,96
2018-10-01T15:54:35.138Z,88
2018-10-01T15:55:45.392Z,80
2018-10-01T15:56:55.655Z,72
2018-10-01T15:58:05.801Z,68
2018-10-01T15:59:15.352Z,68
2018-10-01T16:00:25.448Z,64
2018-10-01T16:01:35.544Z,60
2018-10-01T16:02:45.630Z,56
2018-10-01T16:03:55.771Z,56
2018-10-01T16:05:06.180Z,52
2018-10-01T16:06:16.348Z,48
2018-10-01T16:07:26.433Z,44
2018-10-01T16:08:36.252Z,48
2018-10-01T16:09:46.396Z,44
2018-10-01T16:10:56.523Z,44
2018-10-01T16:12:06.636Z,40
2018-10-01T16:13:16.730Z,40
2018-10-01T16:14:26.563Z,40
2018-10-01T16:15:36.393Z,36
2018-10-01T16:16:46.751Z,36
2018-10-01T16:17:56.902Z,28
2018-10-01T16:19:07.033Z,28
2018-10-01T16:20:17.132Z,28
2018-10-01T16:21:27.217Z,32
2018-10-01T16:22:37.306Z,28
2018-10-01T16:23:47.404Z,28
2018-10-01T16:24:57.251Z,24
2018-10-01T16:26:07.110Z,24
2018-10-01T16:27:16.745Z,24
2018-10-01T16:28:26.828Z,24
2018-10-01T16:29:36.946Z,24
2018-10-01T16:30:47.113Z,20
2018-10-01T16:31:57.247Z,20
2018-10-01T16:33:08.624Z,16
2018-10-01T16:34:18.462Z,12
2018-10-01T16:35:28.606Z,16
2018-10-01T16:36:38.780Z,12
2018-10-01T16:37:48.872Z,12